sensor_id;sensor_type;location;lat;lon;timestamp;temperature;humidity
22813;DHT22;11573;51.334;3.244;2023-04-03T00:00:34;5.80;99.90
22813;DHT22;11573;51.334;3.244;2023-04-03T00:03:01;5.70;99.90
22813;DHT22;11573;51.334;3.244;2023-04-03T00:05:28;5.70;99.90
22813;DHT22;11573;51.334;3.244;2023-04-03T00:07:56;5.60;99.90
22813;DHT22;11573;51.334;3.244;2023-04-03T00:10:23;5.60;99.90
22813;DHT22;11573;51.334;3.244;2023-04-03T00:12:50;5.60;99.90
22813;DHT22;11573;51.334;3.244;2023-04-03T00:15:17;5.60;99.90
22813;DHT22;11573;51.334;3.244;2023-04-03T00:17:43;5.70;99.90
22813;DHT22;11573;51.334;3.244;2023-04-03T00:20:10;5.70;99.90
22813;DHT22;11573;51.334;3.244;2023-04-03T00:22:37;5.70;99.90
22813;DHT22;11573;51.334;3.244;2023-04-03T00:25:05;5.60;99.90
22813;DHT22;11573;51.334;3.244;2023-04-03T00:27:32;5.60;99.90
22813;DHT22;11573;51.334;3.244;2023-04-03T00:29:59;5.60;99.90
22813;DHT22;11573;51.334;3.244;2023-04-03T00:32:26;5.60;99.90
22813;DHT22;11573;51.334;3.244;2023-04-03T00:34:53;5.50;99.90
22813;DHT22;11573;51.334;3.244;2023-04-03T00:37:20;5.60;99.90
22813;DHT22;11573;51.334;3.244;2023-04-03T00:39:47;5.60;99.90
22813;DHT22;11573;51.334;3.244;2023-04-03T00:42:14;5.50;99.90
22813;DHT22;11573;51.334;3.244;2023-04-03T00:47:10;5.50;99.90
22813;DHT22;11573;51.334;3.244;2023-04-03T00:49:38;5.50;99.90
22813;DHT22;11573;51.334;3.244;2023-04-03T00:52:11;5.50;99.90
22813;DHT22;11573;51.334;3.244;2023-04-03T00:54:41;5.50;99.90
22813;DHT22;11573;51.334;3.244;2023-04-03T00:57:10;5.60;99.90
22813;DHT22;11573;51.334;3.244;2023-04-03T00:59:49;5.60;99.90
22813;DHT22;11573;51.334;3.244;2023-04-03T01:02:17;5.60;99.90
22813;DHT22;11573;51.334;3.244;2023-04-03T01:04:45;5.60;99.90
22813;DHT22;11573;51.334;3.244;2023-04-03T01:07:23;5.50;99.90
22813;DHT22;11573;51.334;3.244;2023-04-03T01:09:58;5.60;99.90
22813;DHT22;11573;51.334;3.244;2023-04-03T01:12:29;5.60;99.90
22813;DHT22;11573;51.334;3.244;2023-04-03T01:14:59;5.60;99.90
22813;DHT22;11573;51.334;3.244;2023-04-03T01:17:47;5.50;99.90
22813;DHT22;11573;51.334;3.244;2023-04-03T01:25:39;5.50;99.90
22813;DHT22;11573;51.334;3.244;2023-04-03T01:28:11;5.50;99.90
22813;DHT22;11573;51.334;3.244;2023-04-03T01:30:50;5.50;99.90
22813;DHT22;11573;51.334;3.244;2023-04-03T01:33:20;5.50;99.90
22813;DHT22;11573;51.334;3.244;2023-04-03T01:35:47;5.50;99.90
22813;DHT22;11573;51.334;3.244;2023-04-03T01:38:14;5.50;99.90
22813;DHT22;11573;51.334;3.244;2023-04-03T01:40:41;5.40;99.90
22813;DHT22;11573;51.334;3.244;2023-04-03T01:43:09;5.40;99.90
22813;DHT22;11573;51.334;3.244;2023-04-03T01:45:36;5.40;99.90
22813;DHT22;11573;51.334;3.244;2023-04-03T01:48:04;5.40;99.90
22813;DHT22;11573;51.334;3.244;2023-04-03T01:50:31;5.30;99.90
22813;DHT22;11573;51.334;3.244;2023-04-03T01:52:58;5.30;99.90
22813;DHT22;11573;51.334;3.244;2023-04-03T01:55:25;5.30;99.90
22813;DHT22;11573;51.334;3.244;2023-04-03T01:57:52;5.30;99.90
22813;DHT22;11573;51.334;3.244;2023-04-03T02:00:19;5.30;99.90
22813;DHT22;11573;51.334;3.244;2023-04-03T02:02:46;5.20;99.90
22813;DHT22;11573;51.334;3.244;2023-04-03T02:05:13;5.20;99.90
22813;DHT22;11573;51.334;3.244;2023-04-03T02:07:40;5.20;99.90
22813;DHT22;11573;51.334;3.244;2023-04-03T02:10:07;5.20;99.90
22813;DHT22;11573;51.334;3.244;2023-04-03T02:12:34;5.20;99.90
22813;DHT22;11573;51.334;3.244;2023-04-03T02:15:01;5.10;99.90
22813;DHT22;11573;51.334;3.244;2023-04-03T02:17:28;5.10;99.90
22813;DHT22;11573;51.334;3.244;2023-04-03T02:19:55;5.10;99.90
22813;DHT22;11573;51.334;3.244;2023-04-03T02:22:23;5.10;99.90
22813;DHT22;11573;51.334;3.244;2023-04-03T02:24:50;5.10;99.90
22813;DHT22;11573;51.334;3.244;2023-04-03T02:27:19;5.00;99.90
22813;DHT22;11573;51.334;3.244;2023-04-03T02:29:47;5.00;99.90
22813;DHT22;11573;51.334;3.244;2023-04-03T02:32:14;5.00;99.90
22813;DHT22;11573;51.334;3.244;2023-04-03T02:34:42;5.00;99.90
22813;DHT22;11573;51.334;3.244;2023-04-03T02:37:11;5.00;99.90
22813;DHT22;11573;51.334;3.244;2023-04-03T02:39:38;5.00;99.90
22813;DHT22;11573;51.334;3.244;2023-04-03T02:42:05;4.90;99.90
22813;DHT22;11573;51.334;3.244;2023-04-03T02:44:33;5.00;99.90
22813;DHT22;11573;51.334;3.244;2023-04-03T02:47:00;5.00;99.90
22813;DHT22;11573;51.334;3.244;2023-04-03T02:49:26;5.00;99.90
22813;DHT22;11573;51.334;3.244;2023-04-03T02:51:53;5.00;99.90
22813;DHT22;11573;51.334;3.244;2023-04-03T02:54:20;4.90;99.90
22813;DHT22;11573;51.334;3.244;2023-04-03T02:56:53;4.90;99.90
22813;DHT22;11573;51.334;3.244;2023-04-03T02:59:20;4.90;99.90
22813;DHT22;11573;51.334;3.244;2023-04-03T03:01:48;4.90;99.90
22813;DHT22;11573;51.334;3.244;2023-04-03T03:04:15;4.80;99.90
22813;DHT22;11573;51.334;3.244;2023-04-03T03:06:42;4.80;99.90
22813;DHT22;11573;51.334;3.244;2023-04-03T03:09:10;4.70;99.90
22813;DHT22;11573;51.334;3.244;2023-04-03T03:11:37;4.80;99.90
22813;DHT22;11573;51.334;3.244;2023-04-03T03:14:04;4.70;99.90
22813;DHT22;11573;51.334;3.244;2023-04-03T03:16:32;4.70;99.90
22813;DHT22;11573;51.334;3.244;2023-04-03T03:18:59;4.70;99.90
22813;DHT22;11573;51.334;3.244;2023-04-03T03:21:26;4.70;99.90
22813;DHT22;11573;51.334;3.244;2023-04-03T03:23:53;4.70;99.90
22813;DHT22;11573;51.334;3.244;2023-04-03T03:26:20;4.70;99.90
22813;DHT22;11573;51.334;3.244;2023-04-03T03:28:47;4.70;99.90
22813;DHT22;11573;51.334;3.244;2023-04-03T03:31:14;4.70;99.90
22813;DHT22;11573;51.334;3.244;2023-04-03T03:33:42;4.60;99.90
22813;DHT22;11573;51.334;3.244;2023-04-03T03:36:09;4.60;99.90
22813;DHT22;11573;51.334;3.244;2023-04-03T03:38:37;4.60;99.90
22813;DHT22;11573;51.334;3.244;2023-04-03T03:41:05;4.60;99.90
22813;DHT22;11573;51.334;3.244;2023-04-03T03:43:34;4.60;99.90
22813;DHT22;11573;51.334;3.244;2023-04-03T03:46:02;4.60;99.90
22813;DHT22;11573;51.334;3.244;2023-04-03T03:48:29;4.60;99.90
22813;DHT22;11573;51.334;3.244;2023-04-03T03:50:56;4.60;99.90
22813;DHT22;11573;51.334;3.244;2023-04-03T03:53:28;4.50;99.90
22813;DHT22;11573;51.334;3.244;2023-04-03T03:55:58;4.50;99.90
22813;DHT22;11573;51.334;3.244;2023-04-03T03:58:28;4.40;99.90
22813;DHT22;11573;51.334;3.244;2023-04-03T04:00:55;4.30;99.90
22813;DHT22;11573;51.334;3.244;2023-04-03T04:03:22;4.10;99.90
22813;DHT22;11573;51.334;3.244;2023-04-03T04:05:50;4.10;99.90
22813;DHT22;11573;51.334;3.244;2023-04-03T04:08:17;4.00;99.90
22813;DHT22;11573;51.334;3.244;2023-04-03T04:10:45;3.80;99.90
22813;DHT22;11573;51.334;3.244;2023-04-03T04:13:14;3.80;99.90
22813;DHT22;11573;51.334;3.244;2023-04-03T04:15:42;3.70;99.90
22813;DHT22;11573;51.334;3.244;2023-04-03T04:18:09;3.70;99.90
22813;DHT22;11573;51.334;3.244;2023-04-03T04:20:37;3.70;99.90
22813;DHT22;11573;51.334;3.244;2023-04-03T04:23:04;3.70;99.90
22813;DHT22;11573;51.334;3.244;2023-04-03T04:25:31;3.60;99.90
22813;DHT22;11573;51.334;3.244;2023-04-03T04:27:59;3.50;99.90
22813;DHT22;11573;51.334;3.244;2023-04-03T04:30:26;3.50;99.90
22813;DHT22;11573;51.334;3.244;2023-04-03T04:32:55;3.50;99.90
22813;DHT22;11573;51.334;3.244;2023-04-03T04:35:23;3.50;99.90
22813;DHT22;11573;51.334;3.244;2023-04-03T04:37:51;3.50;99.90
22813;DHT22;11573;51.334;3.244;2023-04-03T04:40:19;3.50;99.90
22813;DHT22;11573;51.334;3.244;2023-04-03T04:42:47;3.50;99.90
22813;DHT22;11573;51.334;3.244;2023-04-03T04:45:15;3.50;99.90
22813;DHT22;11573;51.334;3.244;2023-04-03T04:47:44;3.60;99.90
22813;DHT22;11573;51.334;3.244;2023-04-03T04:50:11;3.70;99.90
22813;DHT22;11573;51.334;3.244;2023-04-03T04:52:39;3.60;99.90
22813;DHT22;11573;51.334;3.244;2023-04-03T04:55:07;3.60;99.90
22813;DHT22;11573;51.334;3.244;2023-04-03T04:57:34;3.60;99.90
22813;DHT22;11573;51.334;3.244;2023-04-03T05:00:03;3.50;99.90
22813;DHT22;11573;51.334;3.244;2023-04-03T05:02:30;3.40;99.90
22813;DHT22;11573;51.334;3.244;2023-04-03T05:04:58;3.40;99.90
22813;DHT22;11573;51.334;3.244;2023-04-03T05:07:28;3.40;99.90
22813;DHT22;11573;51.334;3.244;2023-04-03T05:09:56;3.40;99.90
22813;DHT22;11573;51.334;3.244;2023-04-03T05:12:23;3.30;99.90
22813;DHT22;11573;51.334;3.244;2023-04-03T05:14:55;3.40;99.90
22813;DHT22;11573;51.334;3.244;2023-04-03T05:17:24;3.40;99.90
22813;DHT22;11573;51.334;3.244;2023-04-03T05:19:54;3.50;99.90
22813;DHT22;11573;51.334;3.244;2023-04-03T05:22:23;3.40;99.90
22813;DHT22;11573;51.334;3.244;2023-04-03T05:24:53;3.50;99.90
22813;DHT22;11573;51.334;3.244;2023-04-03T05:27:21;3.40;99.90
22813;DHT22;11573;51.334;3.244;2023-04-03T05:29:53;3.30;99.90
22813;DHT22;11573;51.334;3.244;2023-04-03T05:32:22;3.40;99.90
22813;DHT22;11573;51.334;3.244;2023-04-03T05:34:57;3.40;99.90
22813;DHT22;11573;51.334;3.244;2023-04-03T05:37:27;3.40;99.90
22813;DHT22;11573;51.334;3.244;2023-04-03T05:39:55;3.40;99.90
22813;DHT22;11573;51.334;3.244;2023-04-03T05:42:22;3.40;99.90
22813;DHT22;11573;51.334;3.244;2023-04-03T05:44:49;3.50;99.90
22813;DHT22;11573;51.334;3.244;2023-04-03T05:47:18;3.50;99.90
22813;DHT22;11573;51.334;3.244;2023-04-03T05:49:45;3.60;99.90
22813;DHT22;11573;51.334;3.244;2023-04-03T05:52:22;3.70;99.90
22813;DHT22;11573;51.334;3.244;2023-04-03T05:54:51;3.80;99.90
22813;DHT22;11573;51.334;3.244;2023-04-03T05:57:23;3.70;99.90
22813;DHT22;11573;51.334;3.244;2023-04-03T05:59:51;3.70;99.90
22813;DHT22;11573;51.334;3.244;2023-04-03T06:02:21;3.80;99.90
22813;DHT22;11573;51.334;3.244;2023-04-03T06:04:50;3.90;99.90
22813;DHT22;11573;51.334;3.244;2023-04-03T06:07:20;4.10;99.90
22813;DHT22;11573;51.334;3.244;2023-04-03T06:09:50;4.10;99.90
22813;DHT22;11573;51.334;3.244;2023-04-03T06:12:20;4.20;99.90
22813;DHT22;11573;51.334;3.244;2023-04-03T06:14:48;4.30;99.90
22813;DHT22;11573;51.334;3.244;2023-04-03T06:17:16;4.40;99.90
22813;DHT22;11573;51.334;3.244;2023-04-03T06:19:45;4.50;99.90
22813;DHT22;11573;51.334;3.244;2023-04-03T06:22:12;4.60;99.90
22813;DHT22;11573;51.334;3.244;2023-04-03T06:24:40;4.60;99.90
22813;DHT22;11573;51.334;3.244;2023-04-03T06:27:07;4.70;99.90
22813;DHT22;11573;51.334;3.244;2023-04-03T06:29:34;4.80;99.90
22813;DHT22;11573;51.334;3.244;2023-04-03T06:32:01;4.90;99.90
22813;DHT22;11573;51.334;3.244;2023-04-03T06:34:28;5.00;99.90
22813;DHT22;11573;51.334;3.244;2023-04-03T06:36:55;5.10;99.90
22813;DHT22;11573;51.334;3.244;2023-04-03T06:39:23;5.10;99.90
22813;DHT22;11573;51.334;3.244;2023-04-03T06:41:51;5.20;99.90
22813;DHT22;11573;51.334;3.244;2023-04-03T06:44:25;5.30;99.90
22813;DHT22;11573;51.334;3.244;2023-04-03T06:46:52;5.40;99.90
22813;DHT22;11573;51.334;3.244;2023-04-03T06:49:20;5.50;99.90
22813;DHT22;11573;51.334;3.244;2023-04-03T06:51:48;5.50;99.90
22813;DHT22;11573;51.334;3.244;2023-04-03T06:54:15;5.60;99.90
22813;DHT22;11573;51.334;3.244;2023-04-03T06:56:42;5.70;99.90
22813;DHT22;11573;51.334;3.244;2023-04-03T06:59:09;5.80;99.90
22813;DHT22;11573;51.334;3.244;2023-04-03T07:01:37;5.80;99.90
22813;DHT22;11573;51.334;3.244;2023-04-03T07:04:04;6.00;99.90
22813;DHT22;11573;51.334;3.244;2023-04-03T07:06:31;5.90;99.90
22813;DHT22;11573;51.334;3.244;2023-04-03T07:08:59;5.90;99.90
22813;DHT22;11573;51.334;3.244;2023-04-03T07:11:26;6.10;99.90
22813;DHT22;11573;51.334;3.244;2023-04-03T07:13:53;6.20;99.90
22813;DHT22;11573;51.334;3.244;2023-04-03T07:16:20;6.20;99.90
22813;DHT22;11573;51.334;3.244;2023-04-03T07:18:47;6.30;99.90
22813;DHT22;11573;51.334;3.244;2023-04-03T07:21:14;6.40;99.90
22813;DHT22;11573;51.334;3.244;2023-04-03T07:23:41;6.40;99.90
22813;DHT22;11573;51.334;3.244;2023-04-03T07:26:08;6.40;99.90
22813;DHT22;11573;51.334;3.244;2023-04-03T07:28:35;6.50;99.90
22813;DHT22;11573;51.334;3.244;2023-04-03T07:31:09;6.60;99.90
22813;DHT22;11573;51.334;3.244;2023-04-03T07:33:39;6.70;99.90
22813;DHT22;11573;51.334;3.244;2023-04-03T07:36:07;6.80;99.90
22813;DHT22;11573;51.334;3.244;2023-04-03T07:38:35;6.90;99.90
22813;DHT22;11573;51.334;3.244;2023-04-03T07:41:03;7.00;99.90
22813;DHT22;11573;51.334;3.244;2023-04-03T07:43:30;7.10;99.90
22813;DHT22;11573;51.334;3.244;2023-04-03T07:45:57;7.10;99.90
22813;DHT22;11573;51.334;3.244;2023-04-03T07:48:25;7.20;99.90
22813;DHT22;11573;51.334;3.244;2023-04-03T07:50:52;7.20;99.90
22813;DHT22;11573;51.334;3.244;2023-04-03T07:53:19;7.20;99.90
22813;DHT22;11573;51.334;3.244;2023-04-03T07:55:48;7.30;99.90
22813;DHT22;11573;51.334;3.244;2023-04-03T07:58:18;7.30;99.90
22813;DHT22;11573;51.334;3.244;2023-04-03T08:00:45;7.30;99.90
22813;DHT22;11573;51.334;3.244;2023-04-03T08:03:14;7.40;99.90
22813;DHT22;11573;51.334;3.244;2023-04-03T08:05:45;7.50;99.90
22813;DHT22;11573;51.334;3.244;2023-04-03T08:08:15;7.60;99.90
22813;DHT22;11573;51.334;3.244;2023-04-03T08:10:49;7.70;99.90
22813;DHT22;11573;51.334;3.244;2023-04-03T08:13:17;7.80;99.90
22813;DHT22;11573;51.334;3.244;2023-04-03T08:15:44;7.80;99.90
22813;DHT22;11573;51.334;3.244;2023-04-03T08:18:12;7.80;99.90
22813;DHT22;11573;51.334;3.244;2023-04-03T08:20:39;7.80;99.90
22813;DHT22;11573;51.334;3.244;2023-04-03T08:23:08;7.90;99.90
22813;DHT22;11573;51.334;3.244;2023-04-03T08:25:39;7.90;99.90
22813;DHT22;11573;51.334;3.244;2023-04-03T08:28:08;8.00;99.90
22813;DHT22;11573;51.334;3.244;2023-04-03T08:30:35;8.10;99.90
22813;DHT22;11573;51.334;3.244;2023-04-03T08:33:03;8.10;99.90
22813;DHT22;11573;51.334;3.244;2023-04-03T08:35:30;8.20;99.90
22813;DHT22;11573;51.334;3.244;2023-04-03T08:37:57;8.20;99.90
22813;DHT22;11573;51.334;3.244;2023-04-03T08:40:25;8.30;99.90
22813;DHT22;11573;51.334;3.244;2023-04-03T08:45:45;8.40;99.90
22813;DHT22;11573;51.334;3.244;2023-04-03T08:48:19;8.50;99.90
22813;DHT22;11573;51.334;3.244;2023-04-03T08:50:58;8.50;99.90
22813;DHT22;11573;51.334;3.244;2023-04-03T08:53:32;8.30;99.90
22813;DHT22;11573;51.334;3.244;2023-04-03T08:56:08;8.20;99.90
22813;DHT22;11573;51.334;3.244;2023-04-03T08:58:49;8.40;99.90
22813;DHT22;11573;51.334;3.244;2023-04-03T09:01:40;8.50;99.90
22813;DHT22;11573;51.334;3.244;2023-04-03T09:04:15;8.30;99.90
22813;DHT22;11573;51.334;3.244;2023-04-03T09:06:51;8.30;99.90
22813;DHT22;11573;51.334;3.244;2023-04-03T09:14:50;8.60;99.90
22813;DHT22;11573;51.334;3.244;2023-04-03T09:22:46;8.30;99.90
22813;DHT22;11573;51.334;3.244;2023-04-03T09:25:32;8.40;99.90
22813;DHT22;11573;51.334;3.244;2023-04-03T09:28:01;8.50;99.90
22813;DHT22;11573;51.334;3.244;2023-04-03T09:30:37;8.50;99.90
22813;DHT22;11573;51.334;3.244;2023-04-03T09:33:05;8.70;99.90
22813;DHT22;11573;51.334;3.244;2023-04-03T09:35:36;8.70;99.90
22813;DHT22;11573;51.334;3.244;2023-04-03T09:38:17;8.70;99.90
22813;DHT22;11573;51.334;3.244;2023-04-03T09:43:32;8.60;99.90
22813;DHT22;11573;51.334;3.244;2023-04-03T09:46:38;8.70;99.90
22813;DHT22;11573;51.334;3.244;2023-04-03T09:49:11;8.80;99.90
22813;DHT22;11573;51.334;3.244;2023-04-03T09:51:38;8.90;99.90
22813;DHT22;11573;51.334;3.244;2023-04-03T09:54:37;8.90;99.90
22813;DHT22;11573;51.334;3.244;2023-04-03T09:57:09;8.90;99.90
22813;DHT22;11573;51.334;3.244;2023-04-03T09:59:57;9.00;99.90
22813;DHT22;11573;51.334;3.244;2023-04-03T10:02:34;8.70;99.90
22813;DHT22;11573;51.334;3.244;2023-04-03T10:05:03;8.60;99.90
22813;DHT22;11573;51.334;3.244;2023-04-03T10:07:38;8.60;99.90
22813;DHT22;11573;51.334;3.244;2023-04-03T10:10:19;8.80;99.90
22813;DHT22;11573;51.334;3.244;2023-04-03T10:12:47;9.00;99.90
22813;DHT22;11573;51.334;3.244;2023-04-03T10:15:16;8.70;99.90
22813;DHT22;11573;51.334;3.244;2023-04-03T10:18:00;8.80;99.90
22813;DHT22;11573;51.334;3.244;2023-04-03T10:20:44;8.80;99.90
22813;DHT22;11573;51.334;3.244;2023-04-03T10:23:24;8.80;99.90
22813;DHT22;11573;51.334;3.244;2023-04-03T10:30:58;8.60;99.90
22813;DHT22;11573;51.334;3.244;2023-04-03T10:42:35;8.90;99.90
22813;DHT22;11573;51.334;3.244;2023-04-03T10:50:31;9.10;99.90
22813;DHT22;11573;51.334;3.244;2023-04-03T10:53:31;9.00;99.90
22813;DHT22;11573;51.334;3.244;2023-04-03T10:56:27;9.10;99.90
22813;DHT22;11573;51.334;3.244;2023-04-03T11:01:49;9.30;99.90
22813;DHT22;11573;51.334;3.244;2023-04-03T11:04:19;9.50;99.90
22813;DHT22;11573;51.334;3.244;2023-04-03T11:06:57;9.60;99.90
22813;DHT22;11573;51.334;3.244;2023-04-03T11:09:31;9.60;99.90
22813;DHT22;11573;51.334;3.244;2023-04-03T11:12:24;9.60;99.90
22813;DHT22;11573;51.334;3.244;2023-04-03T11:14:55;9.60;99.90
22813;DHT22;11573;51.334;3.244;2023-04-03T11:17:35;9.60;99.90
22813;DHT22;11573;51.334;3.244;2023-04-03T11:20:08;9.40;99.90
22813;DHT22;11573;51.334;3.244;2023-04-03T11:22:42;9.20;99.90
22813;DHT22;11573;51.334;3.244;2023-04-03T11:27:47;9.30;99.90
22813;DHT22;11573;51.334;3.244;2023-04-03T11:30:28;9.30;99.90
22813;DHT22;11573;51.334;3.244;2023-04-03T11:33:15;9.50;99.90
22813;DHT22;11573;51.334;3.244;2023-04-03T11:35:54;9.70;99.90
22813;DHT22;11573;51.334;3.244;2023-04-03T11:38:29;9.90;99.90
22813;DHT22;11573;51.334;3.244;2023-04-03T11:40:58;10.00;99.90
22813;DHT22;11573;51.334;3.244;2023-04-03T11:43:28;9.80;99.90
22813;DHT22;11573;51.334;3.244;2023-04-03T11:45:59;9.80;99.90
22813;DHT22;11573;51.334;3.244;2023-04-03T11:50:56;9.60;99.90
22813;DHT22;11573;51.334;3.244;2023-04-03T11:55:59;9.80;99.90
22813;DHT22;11573;51.334;3.244;2023-04-03T11:58:32;10.00;99.90
22813;DHT22;11573;51.334;3.244;2023-04-03T12:01:06;10.10;99.90
22813;DHT22;11573;51.334;3.244;2023-04-03T12:03:57;10.30;99.90
22813;DHT22;11573;51.334;3.244;2023-04-03T12:08:55;10.40;99.90
22813;DHT22;11573;51.334;3.244;2023-04-03T12:11:30;10.20;99.90
22813;DHT22;11573;51.334;3.244;2023-04-03T12:16:46;10.30;99.90
22813;DHT22;11573;51.334;3.244;2023-04-03T12:26:46;10.50;99.90
22813;DHT22;11573;51.334;3.244;2023-04-03T12:29:46;10.50;99.90
22813;DHT22;11573;51.334;3.244;2023-04-03T12:32:23;10.60;99.90
22813;DHT22;11573;51.334;3.244;2023-04-03T12:46:48;11.10;99.90
22813;DHT22;11573;51.334;3.244;2023-04-03T12:49:38;10.90;99.90
22813;DHT22;11573;51.334;3.244;2023-04-03T12:52:41;10.70;99.90
22813;DHT22;11573;51.334;3.244;2023-04-03T12:55:16;10.60;99.90
22813;DHT22;11573;51.334;3.244;2023-04-03T12:57:44;10.80;99.90
22813;DHT22;11573;51.334;3.244;2023-04-03T13:02:57;11.10;99.90
22813;DHT22;11573;51.334;3.244;2023-04-03T13:05:24;11.00;99.90
22813;DHT22;11573;51.334;3.244;2023-04-03T13:08:00;10.80;99.90
22813;DHT22;11573;51.334;3.244;2023-04-03T13:10:28;10.80;99.90
22813;DHT22;11573;51.334;3.244;2023-04-03T13:12:58;11.00;99.90
22813;DHT22;11573;51.334;3.244;2023-04-03T13:15:29;10.90;99.90
22813;DHT22;11573;51.334;3.244;2023-04-03T13:17:57;11.00;99.90
22813;DHT22;11573;51.334;3.244;2023-04-03T13:20:27;10.90;99.90
22813;DHT22;11573;51.334;3.244;2023-04-03T13:25:23;11.00;99.90
22813;DHT22;11573;51.334;3.244;2023-04-03T13:27:51;10.80;99.90
22813;DHT22;11573;51.334;3.244;2023-04-03T13:30:37;11.00;99.90
22813;DHT22;11573;51.334;3.244;2023-04-03T13:33:19;11.10;99.90
22813;DHT22;11573;51.334;3.244;2023-04-03T13:35:47;11.10;99.90
22813;DHT22;11573;51.334;3.244;2023-04-03T13:43:24;10.70;99.90
22813;DHT22;11573;51.334;3.244;2023-04-03T13:48:43;10.80;99.90
22813;DHT22;11573;51.334;3.244;2023-04-03T13:54:19;11.10;99.90
22813;DHT22;11573;51.334;3.244;2023-04-03T13:56:54;10.90;99.90
22813;DHT22;11573;51.334;3.244;2023-04-03T13:59:25;10.90;99.90
22813;DHT22;11573;51.334;3.244;2023-04-03T14:04:32;10.60;99.90
22813;DHT22;11573;51.334;3.244;2023-04-03T14:06:59;10.40;99.90
22813;DHT22;11573;51.334;3.244;2023-04-03T14:09:27;10.60;99.90
22813;DHT22;11573;51.334;3.244;2023-04-03T14:12:02;10.70;99.90
22813;DHT22;11573;51.334;3.244;2023-04-03T14:14:34;10.90;99.90
22813;DHT22;11573;51.334;3.244;2023-04-03T14:17:10;11.00;99.90
22813;DHT22;11573;51.334;3.244;2023-04-03T14:19:52;11.20;99.90
22813;DHT22;11573;51.334;3.244;2023-04-03T14:22:26;10.80;99.90
22813;DHT22;11573;51.334;3.244;2023-04-03T14:24:53;10.70;99.90
22813;DHT22;11573;51.334;3.244;2023-04-03T14:27:26;10.90;99.90
22813;DHT22;11573;51.334;3.244;2023-04-03T14:29:55;11.20;99.90
22813;DHT22;11573;51.334;3.244;2023-04-03T14:32:23;11.50;99.90
22813;DHT22;11573;51.334;3.244;2023-04-03T14:34:51;11.40;99.90
22813;DHT22;11573;51.334;3.244;2023-04-03T14:37:24;11.50;99.90
22813;DHT22;11573;51.334;3.244;2023-04-03T14:39:53;11.60;99.90
22813;DHT22;11573;51.334;3.244;2023-04-03T14:42:24;11.40;99.90
22813;DHT22;11573;51.334;3.244;2023-04-03T14:44:52;11.30;99.90
22813;DHT22;11573;51.334;3.244;2023-04-03T14:47:23;11.20;99.90
22813;DHT22;11573;51.334;3.244;2023-04-03T14:50:04;11.20;99.90
22813;DHT22;11573;51.334;3.244;2023-04-03T14:52:35;11.10;99.90
22813;DHT22;11573;51.334;3.244;2023-04-03T14:55:05;11.30;99.90
22813;DHT22;11573;51.334;3.244;2023-04-03T14:57:32;11.50;99.90
22813;DHT22;11573;51.334;3.244;2023-04-03T15:00:00;11.60;99.90
22813;DHT22;11573;51.334;3.244;2023-04-03T15:02:31;11.60;99.90
22813;DHT22;11573;51.334;3.244;2023-04-03T15:05:00;11.40;96.60
22813;DHT22;11573;51.334;3.244;2023-04-03T15:07:29;11.40;98.40
22813;DHT22;11573;51.334;3.244;2023-04-03T15:09:56;11.40;96.80
22813;DHT22;11573;51.334;3.244;2023-04-03T15:12:24;11.30;97.20
22813;DHT22;11573;51.334;3.244;2023-04-03T15:14:51;11.40;97.00
22813;DHT22;11573;51.334;3.244;2023-04-03T15:17:28;11.40;97.40
22813;DHT22;11573;51.334;3.244;2023-04-03T15:19:55;11.60;96.40
22813;DHT22;11573;51.334;3.244;2023-04-03T15:22:22;11.80;96.10
22813;DHT22;11573;51.334;3.244;2023-04-03T15:24:49;11.70;95.40
22813;DHT22;11573;51.334;3.244;2023-04-03T15:27:16;11.70;96.50
22813;DHT22;11573;51.334;3.244;2023-04-03T15:29:44;11.60;95.50
22813;DHT22;11573;51.334;3.244;2023-04-03T15:32:12;11.50;94.90
22813;DHT22;11573;51.334;3.244;2023-04-03T15:34:40;11.40;95.40
22813;DHT22;11573;51.334;3.244;2023-04-03T15:37:07;11.30;91.60
22813;DHT22;11573;51.334;3.244;2023-04-03T15:39:34;11.20;92.30
22813;DHT22;11573;51.334;3.244;2023-04-03T15:42:01;11.10;91.30
22813;DHT22;11573;51.334;3.244;2023-04-03T15:44:36;11.00;92.10
22813;DHT22;11573;51.334;3.244;2023-04-03T15:47:03;11.00;92.20
22813;DHT22;11573;51.334;3.244;2023-04-03T15:49:32;11.00;91.40
22813;DHT22;11573;51.334;3.244;2023-04-03T15:52:00;10.90;91.00
22813;DHT22;11573;51.334;3.244;2023-04-03T15:54:27;11.00;91.80
22813;DHT22;11573;51.334;3.244;2023-04-03T15:56:56;10.90;90.80
22813;DHT22;11573;51.334;3.244;2023-04-03T15:59:24;11.00;91.40
22813;DHT22;11573;51.334;3.244;2023-04-03T16:01:51;11.00;90.80
22813;DHT22;11573;51.334;3.244;2023-04-03T16:04:19;11.20;90.10
22813;DHT22;11573;51.334;3.244;2023-04-03T16:06:47;11.20;91.80
22813;DHT22;11573;51.334;3.244;2023-04-03T16:09:15;11.40;92.50
22813;DHT22;11573;51.334;3.244;2023-04-03T16:11:42;11.40;90.80
22813;DHT22;11573;51.334;3.244;2023-04-03T16:14:10;11.20;90.90
22813;DHT22;11573;51.334;3.244;2023-04-03T16:16:37;11.10;91.00
22813;DHT22;11573;51.334;3.244;2023-04-03T16:19:05;11.10;92.30
22813;DHT22;11573;51.334;3.244;2023-04-03T16:21:32;11.20;91.40
22813;DHT22;11573;51.334;3.244;2023-04-03T16:24:00;11.00;90.70
22813;DHT22;11573;51.334;3.244;2023-04-03T16:26:27;10.90;90.60
22813;DHT22;11573;51.334;3.244;2023-04-03T16:28:54;10.80;91.10
22813;DHT22;11573;51.334;3.244;2023-04-03T16:31:22;10.80;91.60
22813;DHT22;11573;51.334;3.244;2023-04-03T16:33:49;10.60;91.20
22813;DHT22;11573;51.334;3.244;2023-04-03T16:36:16;10.50;91.80
22813;DHT22;11573;51.334;3.244;2023-04-03T16:38:44;10.50;91.70
22813;DHT22;11573;51.334;3.244;2023-04-03T16:41:11;10.50;91.60
22813;DHT22;11573;51.334;3.244;2023-04-03T16:43:37;10.50;92.30
22813;DHT22;11573;51.334;3.244;2023-04-03T16:46:04;10.60;92.00
22813;DHT22;11573;51.334;3.244;2023-04-03T16:48:31;10.50;92.20
22813;DHT22;11573;51.334;3.244;2023-04-03T16:50:58;10.50;93.20
22813;DHT22;11573;51.334;3.244;2023-04-03T16:53:26;10.50;92.60
22813;DHT22;11573;51.334;3.244;2023-04-03T16:55:53;10.30;91.70
22813;DHT22;11573;51.334;3.244;2023-04-03T16:58:21;10.20;92.30
22813;DHT22;11573;51.334;3.244;2023-04-03T17:00:50;10.30;93.70
22813;DHT22;11573;51.334;3.244;2023-04-03T17:03:17;10.30;94.30
22813;DHT22;11573;51.334;3.244;2023-04-03T17:05:47;10.30;95.00
22813;DHT22;11573;51.334;3.244;2023-04-03T17:08:16;10.30;93.50
22813;DHT22;11573;51.334;3.244;2023-04-03T17:10:43;10.30;93.30
22813;DHT22;11573;51.334;3.244;2023-04-03T17:13:10;10.20;93.40
22813;DHT22;11573;51.334;3.244;2023-04-03T17:15:37;10.00;93.00
22813;DHT22;11573;51.334;3.244;2023-04-03T17:18:05;9.90;93.30
22813;DHT22;11573;51.334;3.244;2023-04-03T17:20:32;9.90;94.40
22813;DHT22;11573;51.334;3.244;2023-04-03T17:23:00;9.90;94.70
22813;DHT22;11573;51.334;3.244;2023-04-03T17:25:27;9.80;93.40
22813;DHT22;11573;51.334;3.244;2023-04-03T17:27:54;9.80;94.20
22813;DHT22;11573;51.334;3.244;2023-04-03T17:30:22;9.90;94.10
22813;DHT22;11573;51.334;3.244;2023-04-03T17:32:49;9.80;95.00
22813;DHT22;11573;51.334;3.244;2023-04-03T17:35:16;9.90;95.10
22813;DHT22;11573;51.334;3.244;2023-04-03T17:37:43;10.00;95.60